Terminal Aerodrome Forecast
Issued by NWS

Home | Current Version | Previous Version | Text Only | Print | Product List | Glossary On
Versions: 1 2 3 4 5 6 7 8 9 10 11 12 13
000
FTUS46 KSEW 282353 RRB
TAFPAE
TAF
KPAE 282353Z 2900/2924 17008KT P6SM SCT030 BKN080
     FM290600 05004KT P6SM SCT060 BKN100
     FM291500 14008KT P6SM -RA BKN020 OVC060
     FM291800 17012G25KT P6SM -SHRA BKN030 OVC060
      TEMPO 2920/2923 18020G30KT=

USA.gov is the U.S. government's official web portal to all federal, state and local government web resources and services.